עמוד ראשי
METAR-TAF:

METAR-TAF

שדות תעופה :

Chevak, אלסקה, ארצות הברית

קו רוחב: 61-32-27N, קו אורך: 165-36-03W, גובה: 23מטר

תצפית מזג אוויר נוכחית

הדו"ח נערך לפני 41דקות, בשעה 12:10 UTC
רוח רגועה
טמפרטורת 9 צלסיוס
לחות 100%
לחץ 1016 hPa
ראות: 16.1קילומטר
עננים פזורים בגובה 2500רגל
עננים פזורים בגובה 11000רגל

METAR: PAVA 201210Z AUTO 00000KT 10SM SCT025 SCT110 09/09 A3001 RMK AO2 PNO $

זמן: 04:51 (12:51 UTC)


TAF: חסר

תצפיות ותחזיות מזג אוויר לגבי יותר מ- 4,000 שדות תעופה ברחבי העולם. דוחות METAR ו- TAF.

התחנות הזמינות מסומנות בנקודות צהובות ואדומות על גבי המפה.

העבר את העכבר לנקודה הצבעונית על מנת לראות את שם התחנה.

לאחר מכן, לחץ כדי לראות את תוכן ואת תחזיות מזג האוויר.

כדי לשנות את המפה: לחץ על הכפתורים הירוקים עם הפלוס השחור כדי להתקרב; על הכפתור הירוק עם המקף כדי להתרחק; או בחיצים הירוקים למפות סמוכות.


METAR-TAF: